sensor_id;sensor_type;location;lat;lon;timestamp;temperature;humidity
38488;DHT22;57384;51.986;4.458;2024-01-15T00:02:23;4.50;86.10
38488;DHT22;57384;51.986;4.458;2024-01-15T00:05:27;4.50;86.10
38488;DHT22;57384;51.986;4.458;2024-01-15T00:08:00;4.50;86.10
38488;DHT22;57384;51.986;4.458;2024-01-15T00:10:31;4.50;86.10
38488;DHT22;57384;51.986;4.458;2024-01-15T00:13:06;4.50;86.10
38488;DHT22;57384;51.986;4.458;2024-01-15T00:15:35;4.50;86.10
38488;DHT22;57384;51.986;4.458;2024-01-15T00:18:17;4.50;86.10
38488;DHT22;57384;51.986;4.458;2024-01-15T00:20:51;4.40;86.10
38488;DHT22;57384;51.986;4.458;2024-01-15T00:23:29;4.40;86.00
38488;DHT22;57384;51.986;4.458;2024-01-15T00:26:34;4.40;86.10
38488;DHT22;57384;51.986;4.458;2024-01-15T00:29:09;4.50;86.10
38488;DHT22;57384;51.986;4.458;2024-01-15T00:31:54;4.40;86.10
38488;DHT22;57384;51.986;4.458;2024-01-15T00:34:26;4.40;86.10
38488;DHT22;57384;51.986;4.458;2024-01-15T00:37:07;4.30;86.00
38488;DHT22;57384;51.986;4.458;2024-01-15T00:39:51;4.40;86.10
38488;DHT22;57384;51.986;4.458;2024-01-15T00:42:31;4.30;86.10
38488;DHT22;57384;51.986;4.458;2024-01-15T00:45:10;4.30;86.10
38488;DHT22;57384;51.986;4.458;2024-01-15T00:47:55;4.30;86.10
38488;DHT22;57384;51.986;4.458;2024-01-15T00:50:41;4.20;86.10
38488;DHT22;57384;51.986;4.458;2024-01-15T00:53:14;4.20;86.10
38488;DHT22;57384;51.986;4.458;2024-01-15T00:56:02;4.20;86.10
38488;DHT22;57384;51.986;4.458;2024-01-15T00:59:06;4.20;86.10
38488;DHT22;57384;51.986;4.458;2024-01-15T01:02:13;4.20;86.10
38488;DHT22;57384;51.986;4.458;2024-01-15T01:07:45;4.20;86.10
38488;DHT22;57384;51.986;4.458;2024-01-15T01:10:43;4.20;86.10
38488;DHT22;57384;51.986;4.458;2024-01-15T01:13:24;4.10;86.10
38488;DHT22;57384;51.986;4.458;2024-01-15T01:16:06;4.10;86.00
38488;DHT22;57384;51.986;4.458;2024-01-15T01:19:04;4.10;86.00
38488;DHT22;57384;51.986;4.458;2024-01-15T01:24:25;4.10;86.10
38488;DHT22;57384;51.986;4.458;2024-01-15T01:26:55;4.10;86.00
38488;DHT22;57384;51.986;4.458;2024-01-15T01:29:50;4.10;86.00
38488;DHT22;57384;51.986;4.458;2024-01-15T01:32:26;4.10;86.00
38488;DHT22;57384;51.986;4.458;2024-01-15T01:35:05;4.10;86.00
38488;DHT22;57384;51.986;4.458;2024-01-15T01:38:14;4.00;85.90
38488;DHT22;57384;51.986;4.458;2024-01-15T01:40:58;4.10;85.90
38488;DHT22;57384;51.986;4.458;2024-01-15T01:43:46;4.00;85.70
38488;DHT22;57384;51.986;4.458;2024-01-15T01:46:34;4.00;85.80
38488;DHT22;57384;51.986;4.458;2024-01-15T01:49:15;4.10;85.80
38488;DHT22;57384;51.986;4.458;2024-01-15T01:52:06;4.00;85.80
38488;DHT22;57384;51.986;4.458;2024-01-15T01:54:39;4.00;85.80
38488;DHT22;57384;51.986;4.458;2024-01-15T01:57:14;4.00;85.80
38488;DHT22;57384;51.986;4.458;2024-01-15T01:59:45;4.00;85.70
38488;DHT22;57384;51.986;4.458;2024-01-15T02:02:23;3.90;85.70
38488;DHT22;57384;51.986;4.458;2024-01-15T02:05:34;4.00;85.90
38488;DHT22;57384;51.986;4.458;2024-01-15T02:08:24;3.90;85.80
38488;DHT22;57384;51.986;4.458;2024-01-15T02:10:59;3.90;85.80
38488;DHT22;57384;51.986;4.458;2024-01-15T02:13:37;3.90;85.80
38488;DHT22;57384;51.986;4.458;2024-01-15T02:16:30;3.90;85.80
38488;DHT22;57384;51.986;4.458;2024-01-15T02:19:10;3.90;85.80
38488;DHT22;57384;51.986;4.458;2024-01-15T02:22:29;3.90;85.80
38488;DHT22;57384;51.986;4.458;2024-01-15T02:25:17;3.90;85.80
38488;DHT22;57384;51.986;4.458;2024-01-15T02:28:17;3.80;85.70
38488;DHT22;57384;51.986;4.458;2024-01-15T02:31:14;3.90;85.80
38488;DHT22;57384;51.986;4.458;2024-01-15T02:33:51;3.90;85.80
38488;DHT22;57384;51.986;4.458;2024-01-15T02:36:30;3.80;85.70
38488;DHT22;57384;51.986;4.458;2024-01-15T02:39:03;3.80;85.70
38488;DHT22;57384;51.986;4.458;2024-01-15T02:41:35;3.80;85.80
38488;DHT22;57384;51.986;4.458;2024-01-15T02:44:57;3.80;85.80
38488;DHT22;57384;51.986;4.458;2024-01-15T02:50:29;3.80;85.80
38488;DHT22;57384;51.986;4.458;2024-01-15T02:56:28;3.80;85.80
38488;DHT22;57384;51.986;4.458;2024-01-15T03:02:50;3.80;85.80
38488;DHT22;57384;51.986;4.458;2024-01-15T03:05:56;3.70;85.70
38488;DHT22;57384;51.986;4.458;2024-01-15T03:08:31;3.70;85.70
38488;DHT22;57384;51.986;4.458;2024-01-15T03:11:12;3.70;85.70
38488;DHT22;57384;51.986;4.458;2024-01-15T03:14:18;3.70;85.80
38488;DHT22;57384;51.986;4.458;2024-01-15T03:17:10;3.80;85.80
38488;DHT22;57384;51.986;4.458;2024-01-15T03:23:00;3.70;85.70
38488;DHT22;57384;51.986;4.458;2024-01-15T03:25:36;3.70;85.60
38488;DHT22;57384;51.986;4.458;2024-01-15T03:28:09;3.80;85.70
38488;DHT22;57384;51.986;4.458;2024-01-15T03:31:29;3.70;85.70
38488;DHT22;57384;51.986;4.458;2024-01-15T03:37:30;3.80;85.70
38488;DHT22;57384;51.986;4.458;2024-01-15T03:43:43;3.70;85.70
38488;DHT22;57384;51.986;4.458;2024-01-15T03:46:10;3.70;85.70
38488;DHT22;57384;51.986;4.458;2024-01-15T03:48:37;3.70;85.70
38488;DHT22;57384;51.986;4.458;2024-01-15T03:51:07;3.70;85.80
38488;DHT22;57384;51.986;4.458;2024-01-15T03:53:34;3.80;85.80
38488;DHT22;57384;51.986;4.458;2024-01-15T03:56:11;3.70;85.70
38488;DHT22;57384;51.986;4.458;2024-01-15T03:59:00;3.70;85.70
38488;DHT22;57384;51.986;4.458;2024-01-15T04:04:21;3.80;85.70
38488;DHT22;57384;51.986;4.458;2024-01-15T04:06:53;3.70;85.70
38488;DHT22;57384;51.986;4.458;2024-01-15T04:09:37;3.70;85.80
38488;DHT22;57384;51.986;4.458;2024-01-15T04:15:33;3.80;85.90
38488;DHT22;57384;51.986;4.458;2024-01-15T04:18:15;3.80;85.90
38488;DHT22;57384;51.986;4.458;2024-01-15T04:21:09;3.70;85.80
38488;DHT22;57384;51.986;4.458;2024-01-15T04:23:49;3.70;85.80
38488;DHT22;57384;51.986;4.458;2024-01-15T04:26:16;3.70;85.90
38488;DHT22;57384;51.986;4.458;2024-01-15T04:28:48;3.70;85.80
38488;DHT22;57384;51.986;4.458;2024-01-15T04:31:27;3.70;85.80
38488;DHT22;57384;51.986;4.458;2024-01-15T04:33:59;3.80;86.10
38488;DHT22;57384;51.986;4.458;2024-01-15T04:36:29;3.70;85.80
38488;DHT22;57384;51.986;4.458;2024-01-15T04:39:03;3.70;85.80
38488;DHT22;57384;51.986;4.458;2024-01-15T04:41:30;3.80;85.80
38488;DHT22;57384;51.986;4.458;2024-01-15T04:43:59;3.70;85.70
38488;DHT22;57384;51.986;4.458;2024-01-15T04:46:26;3.70;85.70
38488;DHT22;57384;51.986;4.458;2024-01-15T04:48:53;3.80;85.80
38488;DHT22;57384;51.986;4.458;2024-01-15T04:52:00;3.70;85.70
38488;DHT22;57384;51.986;4.458;2024-01-15T04:55:21;3.70;85.70
38488;DHT22;57384;51.986;4.458;2024-01-15T05:01:49;3.70;85.70
38488;DHT22;57384;51.986;4.458;2024-01-15T05:05:04;3.70;85.80
38488;DHT22;57384;51.986;4.458;2024-01-15T05:29:17;3.50;86.00
38488;DHT22;57384;51.986;4.458;2024-01-15T05:32:14;3.50;86.00
38488;DHT22;57384;51.986;4.458;2024-01-15T05:35:06;3.50;86.00
38488;DHT22;57384;51.986;4.458;2024-01-15T05:38:07;3.40;86.00
38488;DHT22;57384;51.986;4.458;2024-01-15T05:40:42;3.40;86.00
38488;DHT22;57384;51.986;4.458;2024-01-15T05:43:37;3.50;86.10
38488;DHT22;57384;51.986;4.458;2024-01-15T05:46:13;3.40;86.00
38488;DHT22;57384;51.986;4.458;2024-01-15T05:49:11;3.50;86.00
38488;DHT22;57384;51.986;4.458;2024-01-15T05:51:53;3.50;86.00
38488;DHT22;57384;51.986;4.458;2024-01-15T05:54:53;3.50;86.00
38488;DHT22;57384;51.986;4.458;2024-01-15T06:04:34;3.50;86.00
38488;DHT22;57384;51.986;4.458;2024-01-15T06:07:15;3.40;85.90
38488;DHT22;57384;51.986;4.458;2024-01-15T06:10:04;3.40;85.90
38488;DHT22;57384;51.986;4.458;2024-01-15T06:15:44;3.40;85.90
38488;DHT22;57384;51.986;4.458;2024-01-15T06:18:24;3.40;85.80
38488;DHT22;57384;51.986;4.458;2024-01-15T06:20:59;3.40;85.90
38488;DHT22;57384;51.986;4.458;2024-01-15T06:23:39;3.40;85.90
38488;DHT22;57384;51.986;4.458;2024-01-15T06:26:40;3.50;85.90
38488;DHT22;57384;51.986;4.458;2024-01-15T06:32:06;3.40;85.80
38488;DHT22;57384;51.986;4.458;2024-01-15T06:34:37;3.40;85.80
38488;DHT22;57384;51.986;4.458;2024-01-15T06:43:22;3.40;85.90
38488;DHT22;57384;51.986;4.458;2024-01-15T06:46:20;3.40;85.90
38488;DHT22;57384;51.986;4.458;2024-01-15T06:48:50;3.40;85.90
38488;DHT22;57384;51.986;4.458;2024-01-15T06:51:28;3.40;86.00
38488;DHT22;57384;51.986;4.458;2024-01-15T06:54:08;3.40;86.00
38488;DHT22;57384;51.986;4.458;2024-01-15T06:56:39;3.40;86.00
38488;DHT22;57384;51.986;4.458;2024-01-15T07:49:27;3.20;86.00
38488;DHT22;57384;51.986;4.458;2024-01-15T07:52:35;3.20;86.00
38488;DHT22;57384;51.986;4.458;2024-01-15T07:55:05;3.20;86.00
38488;DHT22;57384;51.986;4.458;2024-01-15T07:57:50;3.20;86.00
38488;DHT22;57384;51.986;4.458;2024-01-15T08:00:21;3.20;86.00
38488;DHT22;57384;51.986;4.458;2024-01-15T08:02:48;3.20;86.00
38488;DHT22;57384;51.986;4.458;2024-01-15T08:05:20;3.20;86.00
38488;DHT22;57384;51.986;4.458;2024-01-15T08:07:47;3.20;86.00
38488;DHT22;57384;51.986;4.458;2024-01-15T08:10:14;3.20;86.00
38488;DHT22;57384;51.986;4.458;2024-01-15T08:12:41;3.20;85.90
38488;DHT22;57384;51.986;4.458;2024-01-15T08:15:07;3.20;85.90
38488;DHT22;57384;51.986;4.458;2024-01-15T08:17:34;3.30;86.00
38488;DHT22;57384;51.986;4.458;2024-01-15T08:20:01;3.30;86.00
38488;DHT22;57384;51.986;4.458;2024-01-15T08:22:27;3.30;85.90
38488;DHT22;57384;51.986;4.458;2024-01-15T08:24:56;3.30;85.90
38488;DHT22;57384;51.986;4.458;2024-01-15T08:27:23;3.30;85.90
38488;DHT22;57384;51.986;4.458;2024-01-15T08:29:50;3.30;85.90
38488;DHT22;57384;51.986;4.458;2024-01-15T08:32:17;3.30;85.90
38488;DHT22;57384;51.986;4.458;2024-01-15T08:34:45;3.30;85.80
38488;DHT22;57384;51.986;4.458;2024-01-15T08:37:12;3.30;85.80
38488;DHT22;57384;51.986;4.458;2024-01-15T08:39:39;3.30;85.80
38488;DHT22;57384;51.986;4.458;2024-01-15T08:42:05;3.30;85.80
38488;DHT22;57384;51.986;4.458;2024-01-15T08:44:32;3.40;85.90
38488;DHT22;57384;51.986;4.458;2024-01-15T08:46:59;3.30;85.80
38488;DHT22;57384;51.986;4.458;2024-01-15T08:49:25;3.30;85.80
38488;DHT22;57384;51.986;4.458;2024-01-15T08:51:52;3.40;85.80
38488;DHT22;57384;51.986;4.458;2024-01-15T08:54:18;3.30;85.80
38488;DHT22;57384;51.986;4.458;2024-01-15T08:56:46;3.30;85.80
38488;DHT22;57384;51.986;4.458;2024-01-15T08:59:13;3.30;85.80
38488;DHT22;57384;51.986;4.458;2024-01-15T09:01:39;3.30;85.80
38488;DHT22;57384;51.986;4.458;2024-01-15T09:04:06;3.40;85.80
38488;DHT22;57384;51.986;4.458;2024-01-15T09:06:36;3.40;85.80
38488;DHT22;57384;51.986;4.458;2024-01-15T09:09:05;3.50;85.80
38488;DHT22;57384;51.986;4.458;2024-01-15T09:11:31;3.50;85.80
38488;DHT22;57384;51.986;4.458;2024-01-15T09:13:58;3.40;85.70
38488;DHT22;57384;51.986;4.458;2024-01-15T09:16:26;3.50;85.70
38488;DHT22;57384;51.986;4.458;2024-01-15T09:18:55;3.50;85.70
38488;DHT22;57384;51.986;4.458;2024-01-15T09:21:22;3.50;85.60
38488;DHT22;57384;51.986;4.458;2024-01-15T09:23:49;3.50;85.60
38488;DHT22;57384;51.986;4.458;2024-01-15T09:26:16;3.50;85.60
38488;DHT22;57384;51.986;4.458;2024-01-15T09:28:42;3.60;85.60
38488;DHT22;57384;51.986;4.458;2024-01-15T09:31:09;3.60;85.60
38488;DHT22;57384;51.986;4.458;2024-01-15T09:33:40;3.60;85.60
38488;DHT22;57384;51.986;4.458;2024-01-15T09:36:09;3.60;85.50
38488;DHT22;57384;51.986;4.458;2024-01-15T09:38:36;3.60;85.60
38488;DHT22;57384;51.986;4.458;2024-01-15T09:41:03;3.60;85.50
38488;DHT22;57384;51.986;4.458;2024-01-15T09:43:31;3.70;85.60
38488;DHT22;57384;51.986;4.458;2024-01-15T09:45:57;3.70;85.60
38488;DHT22;57384;51.986;4.458;2024-01-15T09:48:24;3.70;85.50
38488;DHT22;57384;51.986;4.458;2024-01-15T09:50:52;3.70;85.40
38488;DHT22;57384;51.986;4.458;2024-01-15T09:53:19;3.80;85.40
38488;DHT22;57384;51.986;4.458;2024-01-15T09:56:00;3.80;85.50
38488;DHT22;57384;51.986;4.458;2024-01-15T09:58:27;3.80;85.40
38488;DHT22;57384;51.986;4.458;2024-01-15T10:00:54;3.80;85.40
38488;DHT22;57384;51.986;4.458;2024-01-15T10:03:21;3.80;85.40
38488;DHT22;57384;51.986;4.458;2024-01-15T10:05:49;3.80;85.40
38488;DHT22;57384;51.986;4.458;2024-01-15T10:08:16;3.80;85.70
38488;DHT22;57384;51.986;4.458;2024-01-15T10:10:45;3.80;85.60
38488;DHT22;57384;51.986;4.458;2024-01-15T10:13:13;3.80;85.60
38488;DHT22;57384;51.986;4.458;2024-01-15T10:15:41;3.80;85.60
38488;DHT22;57384;51.986;4.458;2024-01-15T10:18:11;3.90;85.70
38488;DHT22;57384;51.986;4.458;2024-01-15T10:20:38;3.90;85.60
38488;DHT22;57384;51.986;4.458;2024-01-15T10:23:05;3.90;85.60
38488;DHT22;57384;51.986;4.458;2024-01-15T10:25:35;3.90;85.60
38488;DHT22;57384;51.986;4.458;2024-01-15T10:28:02;3.90;85.60
38488;DHT22;57384;51.986;4.458;2024-01-15T10:30:30;3.90;85.70
38488;DHT22;57384;51.986;4.458;2024-01-15T10:33:02;3.80;85.60
38488;DHT22;57384;51.986;4.458;2024-01-15T10:35:35;3.80;85.70
38488;DHT22;57384;51.986;4.458;2024-01-15T10:38:02;3.80;85.70
38488;DHT22;57384;51.986;4.458;2024-01-15T10:40:29;3.80;85.70
38488;DHT22;57384;51.986;4.458;2024-01-15T10:42:56;3.80;85.70
38488;DHT22;57384;51.986;4.458;2024-01-15T10:45:23;3.80;85.80
38488;DHT22;57384;51.986;4.458;2024-01-15T10:47:50;3.80;85.80
38488;DHT22;57384;51.986;4.458;2024-01-15T10:50:17;3.80;85.80
38488;DHT22;57384;51.986;4.458;2024-01-15T10:52:49;3.90;85.80
38488;DHT22;57384;51.986;4.458;2024-01-15T10:55:17;3.90;85.70
38488;DHT22;57384;51.986;4.458;2024-01-15T10:57:53;3.90;85.60
38488;DHT22;57384;51.986;4.458;2024-01-15T11:00:21;3.90;85.60
38488;DHT22;57384;51.986;4.458;2024-01-15T11:02:47;4.00;85.60
38488;DHT22;57384;51.986;4.458;2024-01-15T11:05:14;4.00;85.60
38488;DHT22;57384;51.986;4.458;2024-01-15T11:07:43;4.00;85.60
38488;DHT22;57384;51.986;4.458;2024-01-15T11:10:39;4.00;85.60
38488;DHT22;57384;51.986;4.458;2024-01-15T11:13:14;4.00;85.60
38488;DHT22;57384;51.986;4.458;2024-01-15T11:16:05;4.10;85.90
38488;DHT22;57384;51.986;4.458;2024-01-15T11:18:39;4.10;85.50
38488;DHT22;57384;51.986;4.458;2024-01-15T11:23:58;4.20;85.40
38488;DHT22;57384;51.986;4.458;2024-01-15T11:28:57;4.20;85.20
38488;DHT22;57384;51.986;4.458;2024-01-15T11:34:08;4.30;85.30
38488;DHT22;57384;51.986;4.458;2024-01-15T11:42:04;4.40;85.30
38488;DHT22;57384;51.986;4.458;2024-01-15T11:44:31;4.40;85.30
38488;DHT22;57384;51.986;4.458;2024-01-15T11:47:04;4.40;85.80
38488;DHT22;57384;51.986;4.458;2024-01-15T11:50:04;4.40;85.30
38488;DHT22;57384;51.986;4.458;2024-01-15T11:53:01;4.40;85.30
38488;DHT22;57384;51.986;4.458;2024-01-15T11:55:36;4.40;85.30
38488;DHT22;57384;51.986;4.458;2024-01-15T11:58:26;4.40;85.30
38488;DHT22;57384;51.986;4.458;2024-01-15T12:01:07;4.40;85.30
38488;DHT22;57384;51.986;4.458;2024-01-15T12:03:36;4.40;85.40
38488;DHT22;57384;51.986;4.458;2024-01-15T12:06:19;4.40;85.40
38488;DHT22;57384;51.986;4.458;2024-01-15T12:08:46;4.30;85.40
38488;DHT22;57384;51.986;4.458;2024-01-15T12:14:07;4.30;85.40
38488;DHT22;57384;51.986;4.458;2024-01-15T12:16:42;4.30;85.50
38488;DHT22;57384;51.986;4.458;2024-01-15T12:19:09;4.30;85.50
38488;DHT22;57384;51.986;4.458;2024-01-15T12:21:44;4.30;85.50
38488;DHT22;57384;51.986;4.458;2024-01-15T12:24:37;4.40;85.60
38488;DHT22;57384;51.986;4.458;2024-01-15T12:27:14;4.40;85.60
38488;DHT22;57384;51.986;4.458;2024-01-15T12:29:46;4.30;85.50
38488;DHT22;57384;51.986;4.458;2024-01-15T12:32:18;4.30;85.50
38488;DHT22;57384;51.986;4.458;2024-01-15T12:35:07;4.40;85.70
38488;DHT22;57384;51.986;4.458;2024-01-15T12:37:53;4.40;85.60
38488;DHT22;57384;51.986;4.458;2024-01-15T12:40:54;4.30;85.50
38488;DHT22;57384;51.986;4.458;2024-01-15T12:43:27;4.30;85.50
38488;DHT22;57384;51.986;4.458;2024-01-15T12:46:08;4.40;85.60
38488;DHT22;57384;51.986;4.458;2024-01-15T12:49:17;4.40;85.60
38488;DHT22;57384;51.986;4.458;2024-01-15T12:52:21;4.40;85.60
38488;DHT22;57384;51.986;4.458;2024-01-15T12:54:58;4.40;85.50
38488;DHT22;57384;51.986;4.458;2024-01-15T13:08:19;4.40;85.50
38488;DHT22;57384;51.986;4.458;2024-01-15T13:11:21;4.50;85.50
38488;DHT22;57384;51.986;4.458;2024-01-15T13:18:00;4.40;85.50
38488;DHT22;57384;51.986;4.458;2024-01-15T13:20:44;4.50;85.50
38488;DHT22;57384;51.986;4.458;2024-01-15T13:24:05;4.50;85.40
38488;DHT22;57384;51.986;4.458;2024-01-15T13:26:54;4.50;85.40
38488;DHT22;57384;51.986;4.458;2024-01-15T13:29:32;4.50;85.40
38488;DHT22;57384;51.986;4.458;2024-01-15T13:32:20;4.50;85.40
38488;DHT22;57384;51.986;4.458;2024-01-15T13:38:04;4.50;85.50
38488;DHT22;57384;51.986;4.458;2024-01-15T13:40:53;4.50;85.50
38488;DHT22;57384;51.986;4.458;2024-01-15T13:43:39;4.50;85.50
38488;DHT22;57384;51.986;4.458;2024-01-15T13:46:34;4.40;85.50
38488;DHT22;57384;51.986;4.458;2024-01-15T13:49:18;4.50;85.60
38488;DHT22;57384;51.986;4.458;2024-01-15T13:55:15;4.40;85.50
38488;DHT22;57384;51.986;4.458;2024-01-15T13:57:43;4.40;85.60
38488;DHT22;57384;51.986;4.458;2024-01-15T14:00:19;4.40;85.60
38488;DHT22;57384;51.986;4.458;2024-01-15T14:07:21;4.40;85.70
38488;DHT22;57384;51.986;4.458;2024-01-15T14:09:58;4.40;85.70
38488;DHT22;57384;51.986;4.458;2024-01-15T14:13:05;4.40;85.70
38488;DHT22;57384;51.986;4.458;2024-01-15T14:19:01;4.40;85.70
38488;DHT22;57384;51.986;4.458;2024-01-15T14:21:56;4.30;85.60
38488;DHT22;57384;51.986;4.458;2024-01-15T14:28:41;4.30;85.50
38488;DHT22;57384;51.986;4.458;2024-01-15T14:31:54;4.30;85.50
38488;DHT22;57384;51.986;4.458;2024-01-15T14:34:43;4.30;85.50
38488;DHT22;57384;51.986;4.458;2024-01-15T14:37:28;4.30;85.50
38488;DHT22;57384;51.986;4.458;2024-01-15T14:40:31;4.30;85.40
38488;DHT22;57384;51.986;4.458;2024-01-15T14:43:16;4.30;85.40
38488;DHT22;57384;51.986;4.458;2024-01-15T14:49:04;4.20;85.40
38488;DHT22;57384;51.986;4.458;2024-01-15T14:52:13;4.20;85.40
38488;DHT22;57384;51.986;4.458;2024-01-15T14:54:45;4.10;85.30
38488;DHT22;57384;51.986;4.458;2024-01-15T14:57:12;4.10;85.30
38488;DHT22;57384;51.986;4.458;2024-01-15T14:59:46;4.20;85.40
38488;DHT22;57384;51.986;4.458;2024-01-15T15:02:17;4.10;85.40
38488;DHT22;57384;51.986;4.458;2024-01-15T15:04:48;4.10;85.40
38488;DHT22;57384;51.986;4.458;2024-01-15T15:07:32;4.10;85.50
38488;DHT22;57384;51.986;4.458;2024-01-15T15:10:02;4.10;85.50
38488;DHT22;57384;51.986;4.458;2024-01-15T15:12:35;4.10;85.40
38488;DHT22;57384;51.986;4.458;2024-01-15T15:15:04;4.10;85.40
38488;DHT22;57384;51.986;4.458;2024-01-15T15:17:34;4.10;85.40
38488;DHT22;57384;51.986;4.458;2024-01-15T15:20:01;4.10;85.40
38488;DHT22;57384;51.986;4.458;2024-01-15T15:22:28;4.10;85.40
38488;DHT22;57384;51.986;4.458;2024-01-15T15:24:55;4.10;85.40
38488;DHT22;57384;51.986;4.458;2024-01-15T15:27:21;4.10;85.30
38488;DHT22;57384;51.986;4.458;2024-01-15T15:29:48;4.00;85.30
38488;DHT22;57384;51.986;4.458;2024-01-15T15:32:18;4.00;85.30
38488;DHT22;57384;51.986;4.458;2024-01-15T15:34:45;4.00;85.30
38488;DHT22;57384;51.986;4.458;2024-01-15T15:37:22;4.00;85.20
38488;DHT22;57384;51.986;4.458;2024-01-15T15:39:49;4.00;85.20
38488;DHT22;57384;51.986;4.458;2024-01-15T15:42:19;4.10;85.20
38488;DHT22;57384;51.986;4.458;2024-01-15T15:44:45;4.00;85.20
38488;DHT22;57384;51.986;4.458;2024-01-15T15:47:14;4.00;85.20
38488;DHT22;57384;51.986;4.458;2024-01-15T15:49:42;4.00;85.20
38488;DHT22;57384;51.986;4.458;2024-01-15T15:52:09;4.00;85.20
38488;DHT22;57384;51.986;4.458;2024-01-15T15:54:41;3.90;85.10
38488;DHT22;57384;51.986;4.458;2024-01-15T15:57:08;3.90;85.20
38488;DHT22;57384;51.986;4.458;2024-01-15T15:59:35;4.00;85.30
38488;DHT22;57384;51.986;4.458;2024-01-15T16:02:04;3.90;85.20
38488;DHT22;57384;51.986;4.458;2024-01-15T16:04:38;4.00;85.20
38488;DHT22;57384;51.986;4.458;2024-01-15T16:07:07;3.90;85.20
38488;DHT22;57384;51.986;4.458;2024-01-15T16:09:38;3.90;85.20
38488;DHT22;57384;51.986;4.458;2024-01-15T16:12:09;3.90;85.20
38488;DHT22;57384;51.986;4.458;2024-01-15T16:14:44;3.90;85.20
38488;DHT22;57384;51.986;4.458;2024-01-15T16:17:16;3.90;85.20
38488;DHT22;57384;51.986;4.458;2024-01-15T16:20:03;3.90;85.20
38488;DHT22;57384;51.986;4.458;2024-01-15T16:22:32;3.90;85.20
38488;DHT22;57384;51.986;4.458;2024-01-15T16:24:59;3.90;85.20
38488;DHT22;57384;51.986;4.458;2024-01-15T16:27:33;3.80;85.20
38488;DHT22;57384;51.986;4.458;2024-01-15T16:30:07;3.80;85.20
38488;DHT22;57384;51.986;4.458;2024-01-15T16:32:46;3.80;85.20
38488;DHT22;57384;51.986;4.458;2024-01-15T16:38:39;3.80;85.20
38488;DHT22;57384;51.986;4.458;2024-01-15T16:41:07;3.70;85.10
38488;DHT22;57384;51.986;4.458;2024-01-15T16:43:36;3.70;85.10
38488;DHT22;57384;51.986;4.458;2024-01-15T16:46:10;3.70;85.10
38488;DHT22;57384;51.986;4.458;2024-01-15T16:48:40;3.70;85.10
38488;DHT22;57384;51.986;4.458;2024-01-15T16:51:07;3.70;85.00
38488;DHT22;57384;51.986;4.458;2024-01-15T16:53:36;3.70;85.00
38488;DHT22;57384;51.986;4.458;2024-01-15T16:56:05;3.70;85.00
38488;DHT22;57384;51.986;4.458;2024-01-15T16:58:34;3.70;85.00
38488;DHT22;57384;51.986;4.458;2024-01-15T17:01:01;3.70;85.00
38488;DHT22;57384;51.986;4.458;2024-01-15T17:03:28;3.70;85.10
38488;DHT22;57384;51.986;4.458;2024-01-15T17:05:55;3.60;85.10
38488;DHT22;57384;51.986;4.458;2024-01-15T17:08:23;3.70;85.20
38488;DHT22;57384;51.986;4.458;2024-01-15T17:10:49;3.70;85.20
38488;DHT22;57384;51.986;4.458;2024-01-15T17:13:18;3.70;85.20
38488;DHT22;57384;51.986;4.458;2024-01-15T17:15:44;3.60;85.20
38488;DHT22;57384;51.986;4.458;2024-01-15T17:18:11;3.60;85.20
38488;DHT22;57384;51.986;4.458;2024-01-15T17:20:40;3.60;85.20
38488;DHT22;57384;51.986;4.458;2024-01-15T17:23:06;3.60;85.20
38488;DHT22;57384;51.986;4.458;2024-01-15T17:25:35;3.60;85.20
38488;DHT22;57384;51.986;4.458;2024-01-15T17:28:02;3.60;85.20
38488;DHT22;57384;51.986;4.458;2024-01-15T17:30:31;3.60;85.20
38488;DHT22;57384;51.986;4.458;2024-01-15T17:32:57;3.60;85.20
38488;DHT22;57384;51.986;4.458;2024-01-15T17:35:24;3.60;85.20
38488;DHT22;57384;51.986;4.458;2024-01-15T17:37:50;3.60;85.20
38488;DHT22;57384;51.986;4.458;2024-01-15T17:40:20;3.70;85.30
38488;DHT22;57384;51.986;4.458;2024-01-15T17:42:47;3.60;85.20
38488;DHT22;57384;51.986;4.458;2024-01-15T17:45:13;3.60;85.30
38488;DHT22;57384;51.986;4.458;2024-01-15T17:47:40;3.60;85.20
38488;DHT22;57384;51.986;4.458;2024-01-15T17:50:10;3.60;85.30
38488;DHT22;57384;51.986;4.458;2024-01-15T17:52:40;3.60;85.20
38488;DHT22;57384;51.986;4.458;2024-01-15T17:55:06;3.60;85.20
38488;DHT22;57384;51.986;4.458;2024-01-15T17:57:33;3.50;85.20
38488;DHT22;57384;51.986;4.458;2024-01-15T18:00:04;3.60;85.20
38488;DHT22;57384;51.986;4.458;2024-01-15T18:02:31;3.50;85.10
38488;DHT22;57384;51.986;4.458;2024-01-15T18:04:58;3.50;85.10
38488;DHT22;57384;51.986;4.458;2024-01-15T18:07:24;3.50;85.10
38488;DHT22;57384;51.986;4.458;2024-01-15T18:09:53;3.60;85.20
38488;DHT22;57384;51.986;4.458;2024-01-15T18:12:31;3.50;85.10
38488;DHT22;57384;51.986;4.458;2024-01-15T18:15:04;3.50;85.10
38488;DHT22;57384;51.986;4.458;2024-01-15T18:17:41;3.50;85.20
38488;DHT22;57384;51.986;4.458;2024-01-15T18:20:23;3.50;85.20
38488;DHT22;57384;51.986;4.458;2024-01-15T18:23:15;3.50;85.20
38488;DHT22;57384;51.986;4.458;2024-01-15T18:25:42;3.50;85.20
38488;DHT22;57384;51.986;4.458;2024-01-15T18:28:14;3.50;85.30
38488;DHT22;57384;51.986;4.458;2024-01-15T18:30:46;3.40;85.20
38488;DHT22;57384;51.986;4.458;2024-01-15T18:36:39;3.40;85.20
38488;DHT22;57384;51.986;4.458;2024-01-15T18:39:56;3.40;85.20
38488;DHT22;57384;51.986;4.458;2024-01-15T18:42:33;3.40;85.20
38488;DHT22;57384;51.986;4.458;2024-01-15T18:45:21;3.30;85.20
38488;DHT22;57384;51.986;4.458;2024-01-15T18:48:08;3.30;85.20
38488;DHT22;57384;51.986;4.458;2024-01-15T18:51:28;3.30;85.20
38488;DHT22;57384;51.986;4.458;2024-01-15T18:54:06;3.40;85.20
38488;DHT22;57384;51.986;4.458;2024-01-15T18:57:04;3.30;85.20
38488;DHT22;57384;51.986;4.458;2024-01-15T19:02:51;3.30;85.20
38488;DHT22;57384;51.986;4.458;2024-01-15T19:05:56;3.20;85.10
38488;DHT22;57384;51.986;4.458;2024-01-15T19:08:47;3.20;85.10
38488;DHT22;57384;51.986;4.458;2024-01-15T19:11:30;3.20;85.10
38488;DHT22;57384;51.986;4.458;2024-01-15T19:14:57;3.20;85.20
38488;DHT22;57384;51.986;4.458;2024-01-15T19:17:55;3.20;85.20
38488;DHT22;57384;51.986;4.458;2024-01-15T19:20:36;3.20;85.20
38488;DHT22;57384;51.986;4.458;2024-01-15T19:23:21;3.20;85.10
38488;DHT22;57384;51.986;4.458;2024-01-15T19:35:56;3.10;85.00
38488;DHT22;57384;51.986;4.458;2024-01-15T19:42:25;3.10;85.00
38488;DHT22;57384;51.986;4.458;2024-01-15T19:45:24;3.10;85.10
38488;DHT22;57384;51.986;4.458;2024-01-15T19:48:22;3.10;85.10
38488;DHT22;57384;51.986;4.458;2024-01-15T19:51:03;3.10;85.10
38488;DHT22;57384;51.986;4.458;2024-01-15T19:54:04;3.10;85.10
38488;DHT22;57384;51.986;4.458;2024-01-15T19:57:25;3.10;85.00
38488;DHT22;57384;51.986;4.458;2024-01-15T20:00:09;3.10;85.00
38488;DHT22;57384;51.986;4.458;2024-01-15T20:02:36;3.10;85.00
38488;DHT22;57384;51.986;4.458;2024-01-15T20:05:05;3.10;85.00
38488;DHT22;57384;51.986;4.458;2024-01-15T20:07:47;3.10;85.10
38488;DHT22;57384;51.986;4.458;2024-01-15T20:10:19;3.10;85.00
38488;DHT22;57384;51.986;4.458;2024-01-15T20:12:54;3.10;85.00
38488;DHT22;57384;51.986;4.458;2024-01-15T20:15:41;3.10;85.00